Lerna, Illinois
Current Conditions -  °F | °C
As of 6:53 PM on Wednesday 22 Oct 2014 (Local Time) from KMTO Reporting Station
Clear Clear  
Wind Chill: 11°   Ceiling: Unl
Heat Index: 11°   Visibility: 10mi
Dew Point:   Wind: 5mph
Humidity: 61%   Direction: 70°ENE
Pressure: 30.24"   Gusts: NA
Location:  39.42°N, 88.29°W
Report Text: KMTO 222353Z AUTO 07004KT 10SM CLR 11/03 A3024 RMK AO2 SLP242 T01060033 10156 20100 56006
Loading
Personal Weather Stations






























Interactive Weather Map
Tropical Storm Tracking
New forecast layout! Learn more

10-Day Weather Forecast

Advertisements
Track Severe Weather on mobile